createdAt,value
2018-12-15T00:01:50.963Z,67.97
2018-12-15T00:04:18.484Z,68.13
2018-12-15T00:06:45.953Z,68.14
2018-12-15T00:09:13.408Z,67.96
2018-12-15T00:11:40.830Z,67.74
2018-12-15T00:14:08.262Z,68.16
2018-12-15T00:16:35.748Z,68.21
2018-12-15T00:19:03.243Z,68.57
2018-12-15T00:21:30.674Z,68.34
2018-12-15T00:23:58.143Z,68.76
2018-12-15T00:26:25.566Z,68.05
2018-12-15T00:28:53.015Z,67.49
2018-12-15T00:31:20.874Z,67.65
2018-12-15T00:33:48.368Z,67.76
2018-12-15T00:36:15.939Z,67.22
2018-12-15T00:38:43.367Z,67.19
2018-12-15T00:41:10.869Z,67.54
2018-12-15T00:43:38.411Z,67.37
2018-12-15T00:46:05.845Z,67.53
2018-12-15T00:48:33.275Z,68.13
2018-12-15T00:51:00.792Z,68.51
2018-12-15T00:53:28.332Z,68.59
2018-12-15T00:55:55.800Z,68.91
2018-12-15T00:58:27.438Z,68.85
2018-12-15T01:00:54.855Z,69.58
2018-12-15T01:03:22.299Z,69.15
2018-12-15T01:05:49.708Z,69.97
2018-12-15T01:08:17.125Z,69.50
2018-12-15T01:10:44.589Z,68.97
2018-12-15T01:13:12.108Z,68.51
2018-12-15T01:15:44.536Z,69.01
2018-12-15T01:18:13.044Z,68.57
2018-12-15T01:20:40.607Z,69.05
2018-12-15T01:23:08.073Z,68.78
2018-12-15T01:25:35.617Z,68.60
2018-12-15T01:28:03.189Z,68.44
2018-12-15T01:30:30.604Z,68.14
2018-12-15T01:32:58.204Z,68.14
2018-12-15T01:35:25.627Z,68.25
2018-12-15T01:37:53.053Z,67.41
2018-12-15T01:40:20.664Z,67.32
2018-12-15T01:42:48.078Z,66.78
2018-12-15T01:45:15.501Z,66.37
2018-12-15T01:47:42.938Z,65.63
2018-12-15T01:50:10.616Z,65.74
2018-12-15T01:52:38.064Z,65.72
2018-12-15T01:55:05.616Z,65.62
2018-12-15T01:57:33.067Z,65.01
2018-12-15T02:00:00.548Z,64.91
2018-12-15T02:02:27.989Z,64.54
2018-12-15T02:04:55.409Z,64.83
2018-12-15T02:07:22.821Z,64.68
2018-12-15T02:09:50.305Z,64.51
2018-12-15T02:12:17.735Z,65.06
2018-12-15T02:14:45.180Z,64.86
2018-12-15T02:17:12.625Z,64.88
2018-12-15T02:19:40.081Z,65.03
2018-12-15T02:22:07.560Z,65.04
2018-12-15T02:24:35.114Z,65.04
2018-12-15T02:27:02.657Z,65.51
2018-12-15T02:29:30.132Z,65.62
2018-12-15T02:31:57.576Z,65.73
2018-12-15T02:34:25.011Z,65.56
2018-12-15T02:36:52.439Z,65.75
2018-12-15T02:39:19.972Z,65.97
2018-12-15T02:41:47.619Z,66.16
2018-12-15T02:44:15.271Z,66.42
2018-12-15T02:46:42.745Z,66.54
2018-12-15T02:49:10.286Z,67.01
2018-12-15T02:51:37.722Z,66.63
2018-12-15T02:54:05.320Z,67.30
2018-12-15T02:56:32.763Z,66.98
2018-12-15T02:59:00.235Z,66.93
2018-12-15T03:01:27.678Z,67.40
2018-12-15T03:03:55.089Z,67.25
2018-12-15T03:06:22.701Z,66.28
2018-12-15T03:08:50.472Z,66.95
2018-12-15T03:11:17.919Z,67.21
2018-12-15T03:13:45.365Z,67.46
2018-12-15T03:16:12.923Z,67.23
2018-12-15T03:18:40.380Z,67.58
2018-12-15T03:21:07.845Z,67.06
2018-12-15T03:23:35.608Z,66.47
2018-12-15T03:26:03.173Z,66.21
2018-12-15T03:28:30.600Z,66.29
2018-12-15T03:30:58.082Z,66.37
2018-12-15T03:33:25.543Z,65.93
2018-12-15T03:35:52.957Z,65.73
2018-12-15T03:38:20.440Z,65.58
2018-12-15T03:40:47.864Z,66.39
2018-12-15T03:43:15.383Z,66.19
2018-12-15T03:45:42.813Z,66.55
2018-12-15T03:48:10.288Z,66.81
2018-12-15T03:50:37.738Z,67.01
2018-12-15T03:53:05.191Z,67.32
2018-12-15T03:55:32.657Z,67.35
2018-12-15T03:58:00.166Z,67.14
2018-12-15T04:00:27.636Z,67.20
2018-12-15T04:02:55.118Z,66.68
2018-12-15T04:05:22.578Z,66.52
2018-12-15T04:07:50.022Z,66.70
2018-12-15T04:10:17.498Z,66.38
2018-12-15T04:12:44.946Z,66.52
2018-12-15T04:15:12.359Z,66.83
2018-12-15T04:17:39.987Z,66.99
2018-12-15T04:20:07.521Z,67.20
2018-12-15T04:22:35.089Z,67.39
2018-12-15T04:25:02.497Z,66.91
2018-12-15T04:27:29.992Z,66.80
2018-12-15T04:29:57.445Z,66.31
2018-12-15T04:32:24.920Z,66.63
2018-12-15T04:34:52.475Z,66.23
2018-12-15T04:37:19.940Z,66.34
2018-12-15T04:39:47.367Z,66.39
2018-12-15T04:42:14.946Z,65.94
2018-12-15T04:44:42.353Z,65.65
2018-12-15T04:47:09.930Z,65.70
2018-12-15T04:49:37.433Z,65.56
2018-12-15T04:52:04.888Z,66.24
2018-12-15T04:54:32.333Z,66.29
2018-12-15T04:56:59.789Z,66.34
2018-12-15T04:59:27.241Z,66.63
2018-12-15T05:01:54.679Z,66.54
2018-12-15T05:04:22.127Z,66.47
2018-12-15T05:06:49.567Z,66.44
2018-12-15T05:09:17.084Z,66.74
2018-12-15T05:11:44.539Z,66.61
2018-12-15T05:14:11.961Z,66.64
2018-12-15T05:16:39.468Z,66.73
2018-12-15T05:19:07.020Z,66.53
2018-12-15T05:21:34.461Z,66.56
2018-12-15T05:24:01.928Z,66.43
2018-12-15T05:26:29.356Z,66.84
2018-12-15T05:28:56.770Z,66.68
2018-12-15T05:31:24.194Z,66.92
2018-12-15T05:33:51.623Z,66.69
2018-12-15T05:36:19.109Z,67.16
2018-12-15T05:38:46.572Z,66.95
2018-12-15T05:41:13.995Z,66.81
2018-12-15T05:43:41.475Z,67.24
2018-12-15T05:46:08.900Z,67.34
2018-12-15T05:48:36.513Z,66.85
2018-12-15T05:51:03.952Z,66.66
2018-12-15T05:53:31.368Z,66.80
2018-12-15T05:55:58.819Z,66.09
2018-12-15T05:58:26.230Z,66.35
2018-12-15T06:00:53.680Z,66.43
2018-12-15T06:03:21.108Z,65.98
2018-12-15T06:05:48.600Z,66.18
2018-12-15T06:08:16.039Z,66.32
2018-12-15T06:10:43.561Z,66.62
2018-12-15T06:13:11.075Z,66.87
2018-12-15T06:15:38.506Z,66.51
2018-12-15T06:18:05.972Z,66.42
2018-12-15T06:20:33.441Z,66.54
2018-12-15T06:23:00.885Z,66.67
2018-12-15T06:25:28.338Z,66.73
2018-12-15T06:27:55.812Z,66.95
2018-12-15T06:30:23.268Z,66.66
2018-12-15T06:32:50.726Z,66.50
2018-12-15T06:35:18.179Z,66.13
2018-12-15T06:37:45.616Z,66.18
2018-12-15T06:40:13.041Z,66.37
2018-12-15T06:42:40.461Z,66.09
2018-12-15T06:45:07.912Z,66.32
2018-12-15T06:47:35.348Z,66.26
2018-12-15T06:50:03.009Z,65.71
2018-12-15T06:52:30.468Z,65.76
2018-12-15T06:54:58.034Z,65.82
2018-12-15T06:57:25.500Z,66.09
2018-12-15T06:59:52.944Z,65.85
2018-12-15T07:02:20.527Z,65.71
2018-12-15T07:04:47.968Z,66.17
2018-12-15T07:07:15.392Z,65.28
2018-12-15T07:09:42.904Z,65.38
2018-12-15T07:12:10.339Z,65.60
2018-12-15T07:14:37.809Z,66.04
2018-12-15T07:17:05.260Z,66.02
2018-12-15T07:19:32.716Z,65.83
2018-12-15T07:22:00.151Z,66.29
2018-12-15T07:24:27.593Z,66.21
2018-12-15T07:26:55.031Z,66.37
2018-12-15T07:29:22.454Z,66.31
2018-12-15T07:31:49.903Z,65.93
2018-12-15T07:34:17.361Z,66.24
2018-12-15T07:36:44.897Z,65.92
2018-12-15T07:39:12.336Z,65.64
2018-12-15T07:41:39.927Z,65.66
2018-12-15T07:44:07.389Z,65.40
2018-12-15T07:46:34.851Z,65.23
2018-12-15T07:49:02.290Z,65.37
2018-12-15T07:51:29.710Z,64.81
2018-12-15T07:53:57.145Z,65.16
2018-12-15T07:56:26.268Z,64.91
2018-12-15T07:58:53.706Z,64.51
2018-12-15T08:01:21.232Z,64.53
2018-12-15T08:03:48.693Z,64.56
2018-12-15T08:06:16.232Z,64.46
2018-12-15T08:08:43.696Z,64.47
2018-12-15T08:14:26.244Z,64.29
2018-12-15T08:16:53.784Z,63.81
2018-12-15T08:19:21.246Z,63.74
2018-12-15T08:21:48.710Z,63.46
2018-12-15T08:24:16.233Z,63.31
2018-12-15T08:26:43.844Z,63.11
2018-12-15T08:29:11.283Z,63.48
2018-12-15T08:31:38.719Z,63.29
2018-12-15T08:34:06.207Z,63.11
2018-12-15T08:36:33.625Z,63.14
2018-12-15T08:39:01.045Z,62.25
2018-12-15T08:41:28.474Z,62.65
2018-12-15T08:43:55.918Z,62.44
2018-12-15T08:46:23.353Z,62.85
2018-12-15T08:48:50.922Z,63.21
2018-12-15T08:51:18.429Z,62.51
2018-12-15T08:53:45.864Z,62.53
2018-12-15T08:56:13.282Z,62.43
2018-12-15T08:58:40.794Z,62.98
2018-12-15T09:01:08.225Z,62.70
2018-12-15T09:03:35.646Z,62.91
2018-12-15T09:06:03.143Z,63.27
2018-12-15T09:08:30.692Z,63.17
2018-12-15T09:10:58.145Z,62.79
2018-12-15T09:13:25.594Z,63.27
2018-12-15T09:15:53.020Z,63.07
2018-12-15T09:18:20.441Z,62.87
2018-12-15T09:20:47.976Z,63.34
2018-12-15T09:23:15.429Z,62.63
2018-12-15T09:25:42.891Z,62.80
2018-12-15T09:28:10.330Z,63.02
2018-12-15T09:30:37.745Z,63.02
2018-12-15T09:33:05.169Z,62.70
2018-12-15T09:35:32.606Z,62.66
2018-12-15T09:38:00.044Z,63.14
2018-12-15T09:40:27.500Z,62.55
2018-12-15T09:42:54.925Z,62.56
2018-12-15T09:45:22.399Z,62.63
2018-12-15T09:47:49.818Z,62.70
2018-12-15T09:50:17.311Z,62.94
2018-12-15T09:52:44.805Z,62.01
2018-12-15T09:55:12.294Z,62.57
2018-12-15T09:57:39.731Z,62.61
2018-12-15T10:00:07.468Z,62.85
2018-12-15T10:02:34.937Z,62.50
2018-12-15T10:05:02.507Z,62.89
2018-12-15T10:07:30.042Z,62.66
2018-12-15T10:09:57.481Z,62.01
2018-12-15T10:12:24.938Z,62.09
2018-12-15T10:14:52.361Z,62.68
2018-12-15T10:17:19.786Z,62.98
2018-12-15T10:19:47.245Z,62.69
2018-12-15T10:22:14.666Z,62.21
2018-12-15T10:24:42.119Z,62.26
2018-12-15T10:27:09.535Z,61.85
2018-12-15T10:29:42.580Z,62.13
2018-12-15T10:32:15.642Z,62.32
2018-12-15T10:34:43.160Z,62.33
2018-12-15T10:37:10.640Z,61.84
2018-12-15T10:39:38.137Z,61.77
2018-12-15T10:42:05.617Z,62.12
2018-12-15T10:44:33.088Z,61.75
2018-12-15T10:47:00.519Z,61.60
2018-12-15T10:49:30.654Z,60.81
2018-12-15T10:51:57.515Z,60.99
2018-12-15T10:54:24.958Z,61.16
2018-12-15T10:56:52.408Z,61.41
2018-12-15T10:59:19.851Z,61.74
2018-12-15T11:01:47.320Z,60.75
2018-12-15T11:04:14.804Z,61.05
2018-12-15T11:06:42.232Z,60.03
2018-12-15T11:09:09.694Z,60.33
2018-12-15T11:11:37.171Z,59.77
2018-12-15T11:14:04.643Z,60.69
2018-12-15T11:16:32.091Z,60.47
2018-12-15T11:18:59.501Z,60.55
2018-12-15T11:21:26.992Z,60.64
2018-12-15T11:23:54.423Z,60.40
2018-12-15T11:26:21.908Z,60.88
2018-12-15T11:28:49.363Z,60.06
2018-12-15T11:31:16.801Z,60.44
2018-12-15T11:33:44.280Z,60.41
2018-12-15T11:36:11.701Z,60.47
2018-12-15T11:38:39.195Z,60.10
2018-12-15T11:41:06.642Z,60.00
2018-12-15T11:43:34.111Z,59.76
2018-12-15T11:46:01.549Z,59.63
2018-12-15T11:48:29.028Z,60.28
2018-12-15T11:50:56.469Z,60.08
2018-12-15T11:53:23.915Z,59.87
2018-12-15T11:55:51.398Z,59.85
2018-12-15T11:58:18.821Z,59.34
2018-12-15T12:00:46.246Z,58.72
2018-12-15T12:03:13.672Z,58.88
2018-12-15T12:05:41.108Z,59.12
2018-12-15T12:08:08.667Z,59.14
2018-12-15T12:10:36.103Z,58.69
2018-12-15T12:13:03.532Z,59.26
2018-12-15T12:15:31.085Z,59.51
2018-12-15T12:17:58.583Z,59.77
2018-12-15T12:20:26.063Z,59.65
2018-12-15T12:22:53.553Z,58.46
2018-12-15T12:25:20.984Z,59.20
2018-12-15T12:27:48.415Z,58.95
2018-12-15T12:30:15.986Z,57.61
2018-12-15T12:32:43.431Z,58.14
2018-12-15T12:35:11.019Z,58.26
2018-12-15T12:37:38.495Z,58.36
2018-12-15T12:40:06.001Z,58.36
2018-12-15T12:42:33.485Z,57.69
2018-12-15T12:45:00.939Z,57.34
2018-12-15T12:47:28.656Z,58.28
2018-12-15T12:49:56.933Z,57.25
2018-12-15T12:52:24.727Z,58.00
2018-12-15T12:54:52.207Z,58.35
2018-12-15T12:57:19.728Z,58.67
2018-12-15T12:59:47.216Z,58.64
2018-12-15T13:02:14.678Z,58.27
2018-12-15T13:04:42.120Z,58.61
2018-12-15T13:07:09.538Z,58.90
2018-12-15T13:09:37.013Z,58.87
2018-12-15T13:12:04.488Z,58.72
2018-12-15T13:14:31.941Z,58.75
2018-12-15T13:16:59.419Z,58.71
2018-12-15T13:19:26.908Z,58.29
2018-12-15T13:21:54.437Z,58.54
2018-12-15T13:24:22.338Z,58.65
2018-12-15T13:26:49.855Z,58.42
2018-12-15T13:29:17.324Z,58.10
2018-12-15T13:31:44.763Z,58.04
2018-12-15T13:34:12.188Z,58.71
2018-12-15T13:36:39.663Z,58.63
2018-12-15T13:39:07.241Z,58.40
2018-12-15T13:41:34.813Z,58.72
2018-12-15T13:44:02.241Z,58.54
2018-12-15T13:46:29.873Z,59.21
2018-12-15T13:48:57.378Z,58.95
2018-12-15T13:51:24.823Z,59.21
2018-12-15T13:53:52.307Z,59.03
2018-12-15T13:56:19.743Z,59.17
2018-12-15T13:58:47.409Z,59.34
2018-12-15T14:01:14.853Z,58.74
2018-12-15T14:03:42.284Z,59.43
2018-12-15T14:06:09.729Z,58.75
2018-12-15T14:08:37.160Z,59.42
2018-12-15T14:11:04.708Z,58.97
2018-12-15T14:13:32.157Z,59.47
2018-12-15T14:15:59.567Z,59.56
2018-12-15T14:18:27.048Z,59.25
2018-12-15T14:20:54.479Z,59.27
2018-12-15T14:23:21.978Z,59.08
2018-12-15T14:25:49.644Z,59.13
2018-12-15T14:28:17.112Z,59.07
2018-12-15T14:30:44.564Z,59.20
2018-12-15T14:33:12.020Z,59.33
2018-12-15T14:35:39.473Z,59.75
2018-12-15T14:38:06.883Z,58.91
2018-12-15T14:40:34.327Z,58.92
2018-12-15T14:43:01.845Z,59.05
2018-12-15T14:45:29.385Z,59.27
2018-12-15T14:47:56.865Z,59.14
2018-12-15T14:50:24.337Z,59.39
2018-12-15T14:52:51.773Z,59.61
2018-12-15T14:55:19.227Z,59.38
2018-12-15T14:57:46.675Z,59.66
2018-12-15T15:00:14.399Z,59.86
2018-12-15T15:02:41.911Z,59.59
2018-12-15T15:05:09.471Z,59.39
2018-12-15T15:07:36.913Z,59.68
2018-12-15T15:10:05.628Z,59.51
2018-12-15T15:12:33.057Z,59.74
2018-12-15T15:15:00.506Z,59.77
2018-12-15T15:17:27.932Z,59.40
2018-12-15T15:19:55.667Z,59.46
2018-12-15T15:22:23.097Z,59.79
2018-12-15T15:24:50.527Z,59.91
2018-12-15T15:27:17.975Z,60.08
2018-12-15T15:29:45.408Z,60.06
2018-12-15T15:32:12.918Z,60.22
2018-12-15T15:34:40.444Z,60.31
2018-12-15T15:37:07.954Z,60.41
2018-12-15T15:39:35.416Z,60.63
2018-12-15T15:42:02.865Z,61.10
2018-12-15T15:44:30.304Z,60.72
2018-12-15T15:46:57.762Z,60.32
2018-12-15T15:49:25.232Z,60.74
2018-12-15T15:51:52.687Z,60.99
2018-12-15T15:54:20.116Z,60.68
2018-12-15T15:56:47.590Z,61.23
2018-12-15T15:59:15.016Z,61.04
2018-12-15T16:01:42.501Z,61.08
2018-12-15T16:04:09.917Z,61.36
2018-12-15T16:06:37.358Z,61.20
2018-12-15T16:09:07.463Z,61.44
2018-12-15T16:11:34.903Z,61.32
2018-12-15T16:14:02.342Z,61.27
2018-12-15T16:16:32.584Z,61.38
2018-12-15T16:19:00.129Z,61.74
2018-12-15T16:21:27.697Z,61.54
2018-12-15T16:23:55.143Z,61.55
2018-12-15T16:26:22.560Z,61.81
2018-12-15T16:28:50.102Z,61.99
2018-12-15T16:31:17.582Z,61.99
2018-12-15T16:33:45.007Z,62.06
2018-12-15T16:36:12.462Z,62.41
2018-12-15T16:38:39.895Z,62.54
2018-12-15T16:41:07.331Z,62.36
2018-12-15T16:43:34.805Z,62.78
2018-12-15T16:46:02.244Z,62.29
2018-12-15T16:48:29.692Z,62.16
2018-12-15T16:50:57.187Z,62.01
2018-12-15T16:53:24.765Z,62.14
2018-12-15T16:55:52.169Z,62.78
2018-12-15T16:58:19.607Z,62.83
2018-12-15T17:00:47.116Z,62.68
2018-12-15T17:03:14.687Z,62.40
2018-12-15T17:05:42.246Z,62.73
2018-12-15T17:08:09.661Z,62.34
2018-12-15T17:10:37.103Z,62.68
2018-12-15T17:13:04.666Z,62.83
2018-12-15T17:15:32.088Z,62.92
2018-12-15T17:17:59.528Z,63.11
2018-12-15T17:20:26.971Z,63.55
2018-12-15T17:22:54.432Z,63.02
2018-12-15T17:25:21.857Z,63.09
2018-12-15T17:27:49.344Z,63.05
2018-12-15T17:30:16.802Z,63.55
2018-12-15T17:32:44.274Z,63.49
2018-12-15T17:35:11.775Z,64.09
2018-12-15T17:37:39.249Z,64.18
2018-12-15T17:40:07.681Z,63.93
2018-12-15T17:42:35.101Z,64.52
2018-12-15T17:45:02.672Z,64.66
2018-12-15T17:47:30.128Z,64.95
2018-12-15T17:49:57.551Z,65.08
2018-12-15T17:52:25.319Z,65.18
2018-12-15T17:54:52.920Z,65.21
2018-12-15T17:57:20.358Z,65.66
2018-12-15T17:59:47.809Z,65.68
2018-12-15T18:02:15.248Z,65.80
2018-12-15T18:04:42.657Z,66.18
2018-12-15T18:07:10.110Z,66.20
2018-12-15T18:09:37.552Z,66.62
2018-12-15T18:12:05.011Z,66.50
2018-12-15T18:14:32.479Z,66.58
2018-12-15T18:16:59.908Z,66.89
2018-12-15T18:19:27.669Z,66.94
2018-12-15T18:21:55.112Z,66.81
2018-12-15T18:24:22.618Z,66.69
2018-12-15T18:26:50.056Z,66.92
2018-12-15T18:29:17.508Z,66.71
2018-12-15T18:31:44.965Z,67.05
2018-12-15T18:34:12.435Z,66.97
2018-12-15T18:36:39.863Z,67.44
2018-12-15T18:39:07.662Z,67.32
2018-12-15T18:41:35.139Z,67.54
2018-12-15T18:44:02.639Z,67.20
2018-12-15T18:46:30.070Z,67.55
2018-12-15T18:48:57.585Z,67.43
2018-12-15T18:51:25.324Z,67.86
2018-12-15T18:53:52.876Z,67.91
2018-12-15T18:56:20.356Z,67.75
2018-12-15T18:58:47.820Z,67.85
2018-12-15T19:01:15.297Z,67.66
2018-12-15T19:03:42.736Z,67.60
2018-12-15T19:06:10.293Z,67.84
2018-12-15T19:08:37.733Z,67.77
2018-12-15T19:11:05.213Z,68.08
2018-12-15T19:13:32.656Z,68.25
2018-12-15T19:16:00.101Z,67.99
2018-12-15T19:18:27.571Z,68.39
2018-12-15T19:20:54.980Z,68.46
2018-12-15T19:23:22.454Z,68.24
2018-12-15T19:25:49.936Z,68.47
2018-12-15T19:28:17.364Z,68.84
2018-12-15T19:30:44.867Z,68.74
2018-12-15T19:33:12.289Z,69.07
2018-12-15T19:35:39.718Z,68.74
2018-12-15T19:38:07.144Z,68.80
2018-12-15T19:40:34.705Z,68.97
2018-12-15T19:43:02.201Z,68.40
2018-12-15T19:45:29.705Z,68.96
2018-12-15T19:47:57.163Z,68.92
2018-12-15T19:50:24.623Z,69.12
2018-12-15T19:52:52.067Z,69.25
2018-12-15T19:55:19.540Z,69.18
2018-12-15T19:57:47.002Z,69.11
2018-12-15T20:00:14.472Z,69.63
2018-12-15T20:02:41.879Z,69.42
2018-12-15T20:05:09.360Z,69.60
2018-12-15T20:07:36.791Z,69.38
2018-12-15T20:10:05.134Z,69.50
2018-12-15T20:12:32.605Z,69.52
2018-12-15T20:15:00.114Z,69.58
2018-12-15T20:17:28.239Z,69.41
2018-12-15T20:19:55.743Z,69.52
2018-12-15T20:22:23.181Z,69.60
2018-12-15T20:24:50.661Z,69.49
2018-12-15T20:27:18.095Z,69.40
2018-12-15T20:29:45.528Z,69.45
2018-12-15T20:32:12.933Z,69.63
2018-12-15T20:34:40.377Z,69.80
2018-12-15T20:37:07.931Z,69.50
2018-12-15T20:39:35.394Z,69.71
2018-12-15T20:42:02.870Z,69.66
2018-12-15T20:44:30.609Z,69.30
2018-12-15T20:46:58.083Z,69.51
2018-12-15T20:49:25.505Z,69.28
2018-12-15T20:51:52.965Z,69.24
2018-12-15T20:54:20.544Z,69.46
2018-12-15T20:56:48.009Z,69.82
2018-12-15T20:59:15.467Z,69.83
2018-12-15T21:01:42.883Z,69.81
2018-12-15T21:04:10.383Z,69.73
2018-12-15T21:06:37.819Z,69.43
2018-12-15T21:09:06.535Z,69.46
2018-12-15T21:11:33.949Z,69.50
2018-12-15T21:14:01.536Z,69.75
2018-12-15T21:16:28.996Z,69.37
2018-12-15T21:18:56.452Z,69.57
2018-12-15T21:21:23.886Z,69.15
2018-12-15T21:23:51.405Z,69.06
2018-12-15T21:26:18.844Z,69.02
2018-12-15T21:28:46.375Z,69.11
2018-12-15T21:31:13.880Z,69.01
2018-12-15T21:33:41.408Z,69.18
2018-12-15T21:36:08.955Z,69.10
2018-12-15T21:38:36.429Z,69.21
2018-12-15T21:41:03.915Z,69.14
2018-12-15T21:43:31.431Z,69.37
2018-12-15T21:45:58.880Z,68.78
2018-12-15T21:48:26.449Z,68.75
2018-12-15T21:50:53.911Z,68.83
2018-12-15T21:53:21.333Z,68.96
2018-12-15T21:55:48.831Z,68.85
2018-12-15T21:58:16.259Z,68.82
2018-12-15T22:00:43.726Z,68.36
2018-12-15T22:03:11.249Z,68.88
2018-12-15T22:05:38.705Z,68.78
2018-12-15T22:08:06.137Z,68.73
2018-12-15T22:10:33.650Z,68.89
2018-12-15T22:13:01.123Z,68.36
2018-12-15T22:15:28.589Z,68.49
2018-12-15T22:17:56.029Z,68.26
2018-12-15T22:20:23.801Z,68.42
2018-12-15T22:22:51.261Z,68.35
2018-12-15T22:25:18.781Z,68.40
2018-12-15T22:27:46.205Z,67.99
2018-12-15T22:30:13.798Z,68.33
2018-12-15T22:32:41.273Z,68.08
2018-12-15T22:35:08.836Z,68.19
2018-12-15T22:37:36.268Z,67.77
2018-12-15T22:40:04.594Z,67.99
2018-12-15T22:42:32.025Z,67.96
2018-12-15T22:44:59.463Z,67.87
2018-12-15T22:47:26.946Z,67.76
2018-12-15T22:49:54.398Z,67.96
2018-12-15T22:52:21.982Z,67.67
2018-12-15T22:54:49.394Z,67.76
2018-12-15T22:57:16.813Z,67.86
2018-12-15T22:59:44.274Z,68.08
2018-12-15T23:02:11.785Z,68.08
2018-12-15T23:04:39.235Z,68.18
2018-12-15T23:07:06.931Z,67.95
2018-12-15T23:09:34.476Z,68.39
2018-12-15T23:12:01.999Z,68.55
2018-12-15T23:14:29.497Z,68.62
2018-12-15T23:16:56.966Z,68.79
2018-12-15T23:19:24.420Z,68.60
2018-12-15T23:21:51.973Z,68.80
2018-12-15T23:24:19.390Z,68.49
2018-12-15T23:26:46.996Z,68.32
2018-12-15T23:29:14.431Z,68.87
2018-12-15T23:31:41.893Z,68.63
2018-12-15T23:34:09.321Z,68.58
2018-12-15T23:36:36.809Z,68.53
2018-12-15T23:39:06.081Z,68.52
2018-12-15T23:41:33.575Z,68.27
2018-12-15T23:44:01.269Z,68.40
2018-12-15T23:46:28.701Z,68.55
2018-12-15T23:48:56.113Z,68.18
2018-12-15T23:51:23.544Z,68.03
2018-12-15T23:53:51.043Z,67.72
2018-12-15T23:56:18.468Z,67.90
2018-12-15T23:58:45.915Z,67.88
